Time;durP1;ratioP1;P1;durP2;ratioP2;P2;SDS_P1;SDS_P2;PMS_P1;PMS_P2;Temp;Humidity;BMP_temperature;BMP_pressure;BME280_temperature;BME280_humidity;BME280_pressure;Samples;Min_cycle;Max_cycle;Signal;HPM_P1;HPM_P2
2022/04/19 00:01:24;;;;;;;19.23;15.93;;;9.20;99.90;;;;;;5081036;28;20040;-44
2022/04/19 00:03:50;;;;;;;18.58;14.63;;;9.10;99.90;;;;;;5081313;28;20487;-45
2022/04/19 00:06:15;;;;;;;14.85;13.25;;;9.00;99.90;;;;;;5082102;28;20494;-46
2022/04/19 00:08:41;;;;;;;16.38;14.57;;;8.90;99.90;;;;;;5092554;27;20092;-45
2022/04/19 00:11:08;;;;;;;18.25;14.05;;;8.70;99.90;;;;;;5078229;28;20059;-47
2022/04/19 00:13:33;;;;;;;16.88;14.27;;;8.70;99.90;;;;;;5087697;28;20118;-49
2022/04/19 00:15:59;;;;;;;15.48;13.57;;;8.60;99.90;;;;;;5066054;28;20058;-43
2022/04/19 00:18:26;;;;;;;16.30;14.23;;;8.50;99.90;;;;;;5083174;28;20052;-43
2022/04/19 00:20:54;;;;;;;19.58;15.40;;;8.50;99.90;;;;;;5079610;28;20616;-45
2022/04/19 00:23:20;;;;;;;17.42;13.80;;;8.40;99.90;;;;;;5087370;28;20043;-46
2022/04/19 00:25:48;;;;;;;19.92;15.00;;;8.30;99.90;;;;;;5099994;28;20472;-45
2022/04/19 00:28:15;;;;;;;19.30;16.58;;;8.30;99.90;;;;;;5068198;28;20043;-43
2022/04/19 00:30:42;;;;;;;25.13;17.38;;;8.30;99.90;;;;;;5079125;28;20055;-46
2022/04/19 00:33:08;;;;;;;23.85;16.73;;;8.30;99.90;;;;;;5061945;28;20058;-43
2022/04/19 00:35:35;;;;;;;25.23;18.00;;;8.30;99.90;;;;;;5080581;28;20086;-44
2022/04/19 00:38:01;;;;;;;20.83;15.45;;;8.30;99.90;;;;;;5086270;28;20050;-45
2022/04/19 00:40:27;;;;;;;18.17;14.52;;;8.30;99.90;;;;;;5098907;28;20048;-44
2022/04/19 00:42:56;;;;;;;16.95;13.52;;;8.20;99.90;;;;;;5100158;28;20051;-45
2022/04/19 00:45:23;;;;;;;17.02;14.18;;;8.10;99.90;;;;;;5100850;28;20350;-45
2022/04/19 00:47:52;;;;;;;23.80;17.63;;;8.00;99.90;;;;;;5081132;28;20060;-47
2022/04/19 00:50:19;;;;;;;41.65;25.58;;;7.90;99.90;;;;;;5079366;28;20098;-44
2022/04/19 00:52:45;;;;;;;68.75;37.35;;;7.90;99.90;;;;;;5079498;28;20114;-43
2022/04/19 00:55:12;;;;;;;75.50;39.42;;;7.90;99.90;;;;;;5061613;28;20051;-43
2022/04/19 00:57:39;;;;;;;40.60;23.33;;;8.00;99.90;;;;;;5098285;28;20051;-45
2022/04/19 01:00:08;;;;;;;32.72;19.48;;;8.00;99.90;;;;;;5071366;28;20112;-43
2022/04/19 01:02:36;;;;;;;48.30;24.27;;;8.00;99.90;;;;;;5079514;28;20068;-43
2022/04/19 01:05:04;;;;;;;24.80;16.15;;;7.90;99.90;;;;;;5093498;28;20070;-46
2022/04/19 01:07:30;;;;;;;34.30;21.23;;;7.90;99.90;;;;;;5088707;28;20044;-44
2022/04/19 01:09:56;;;;;;;45.25;28.05;;;7.80;99.90;;;;;;5098828;28;20043;-44
2022/04/19 01:15:09;;;;;;;45.13;27.10;;;7.70;99.90;;;;;;5079879;28;20048;-44
2022/04/19 01:17:39;;;;;;;46.67;27.50;;;7.60;99.90;;;;;;5093486;28;20048;-45
2022/04/19 01:20:07;;;;;;;47.20;28.90;;;7.60;99.90;;;;;;5097193;28;20047;-46
2022/04/19 01:22:37;;;;;;;55.92;32.25;;;7.60;99.90;;;;;;5083081;28;20087;-44
2022/04/19 01:25:03;;;;;;;61.22;34.88;;;7.60;99.90;;;;;;5095037;28;20775;-44
2022/04/19 01:27:29;;;;;;;61.55;35.78;;;7.60;99.90;;;;;;5086088;28;20040;-44
2022/04/19 01:30:00;;;;;;;63.38;35.97;;;7.60;99.90;;;;;;5086979;28;20059;-51
2022/04/19 01:32:32;;;;;;;52.75;31.35;;;7.70;99.90;;;;;;5098904;28;20055;-45
2022/04/19 01:35:08;;;;;;;53.08;31.35;;;7.60;99.90;;;;;;5079645;28;20150;-45
2022/04/19 01:37:35;;;;;;;55.83;30.23;;;7.60;99.90;;;;;;5062058;28;20039;-44
2022/04/19 01:40:16;;;;;;;67.63;36.40;;;7.50;99.90;;;;;;5044656;28;20064;-44
2022/04/19 01:43:01;;;;;;;55.53;31.73;;;7.50;99.90;;;;;;5084265;28;20055;-46
2022/04/19 01:45:29;;;;;;;50.60;29.38;;;7.50;99.90;;;;;;5096912;28;20085;-43
2022/04/19 01:47:57;;;;;;;51.35;30.85;;;7.50;99.90;;;;;;5061147;28;20056;-43
2022/04/19 01:50:26;;;;;;;50.17;29.77;;;7.40;99.90;;;;;;5093337;28;20058;-43
2022/04/19 01:52:52;;;;;;;52.47;30.20;;;7.40;99.90;;;;;;5061075;28;20067;-44
2022/04/19 01:55:20;;;;;;;45.38;28.38;;;7.30;99.90;;;;;;5061598;28;20052;-44
2022/04/19 01:57:51;;;;;;;41.65;25.40;;;7.40;99.90;;;;;;5079484;28;20059;-45
2022/04/19 02:00:19;;;;;;;40.20;25.38;;;7.40;99.90;;;;;;5087818;28;20044;-46
2022/04/19 02:02:45;;;;;;;41.90;27.05;;;7.40;99.90;;;;;;5089749;28;20104;-43
2022/04/19 02:05:12;;;;;;;38.85;26.25;;;7.50;99.90;;;;;;5081928;28;20083;-43
2022/04/19 02:07:43;;;;;;;40.45;26.13;;;7.40;99.90;;;;;;5078595;28;20052;-43
2022/04/19 02:10:11;;;;;;;45.28;26.23;;;7.40;99.90;;;;;;5081942;28;20054;-43
2022/04/19 02:12:38;;;;;;;39.35;25.98;;;7.30;99.90;;;;;;5064170;28;20459;-43
2022/04/19 02:15:05;;;;;;;40.92;25.73;;;7.20;99.90;;;;;;5082706;28;20476;-44
2022/04/19 02:17:31;;;;;;;40.00;26.70;;;7.20;99.90;;;;;;5082443;28;20048;-45
2022/04/19 02:20:05;;;;;;;38.88;24.38;;;7.10;99.90;;;;;;5082174;28;20533;-43
2022/04/19 02:22:32;;;;;;;38.53;24.13;;;7.00;99.90;;;;;;5082812;28;20509;-45
2022/04/19 02:24:59;;;;;;;36.92;23.73;;;6.90;99.90;;;;;;5083089;28;20159;-44
2022/04/19 02:27:25;;;;;;;34.03;22.27;;;6.80;99.90;;;;;;5083651;28;20490;-44
2022/04/19 02:29:51;;;;;;;34.72;20.90;;;6.80;99.90;;;;;;5083165;28;20043;-45
2022/04/19 02:32:17;;;;;;;33.20;21.45;;;6.70;99.90;;;;;;5095109;28;20595;-44
2022/04/19 02:34:43;;;;;;;28.02;19.63;;;6.70;99.90;;;;;;5065557;28;20818;-43
2022/04/19 02:37:09;;;;;;;30.52;19.88;;;6.70;99.90;;;;;;5083420;28;20036;-46
2022/04/19 02:39:36;;;;;;;31.83;20.15;;;6.70;99.90;;;;;;5072445;28;20070;-44
2022/04/19 02:42:04;;;;;;;31.98;20.17;;;6.70;99.90;;;;;;5100011;28;20414;-44
2022/04/19 02:44:30;;;;;;;26.77;19.67;;;6.60;99.90;;;;;;5083329;28;20056;-45
2022/04/19 02:46:55;;;;;;;27.27;17.15;;;6.60;99.90;;;;;;5096553;28;20055;-48
2022/04/19 02:49:21;;;;;;;27.77;18.30;;;6.60;99.90;;;;;;5101414;28;20063;-45
2022/04/19 02:51:47;;;;;;;22.65;16.42;;;6.50;99.90;;;;;;5102464;28;20036;-44
2022/04/19 02:54:13;;;;;;;21.77;16.45;;;6.50;99.90;;;;;;5085946;28;20047;-44
2022/04/19 02:56:39;;;;;;;21.92;15.50;;;6.50;99.90;;;;;;5101579;28;20047;-47
2022/04/19 02:59:05;;;;;;;18.42;13.40;;;6.40;99.90;;;;;;5082929;28;20218;-43
2022/04/19 03:01:31;;;;;;;19.73;12.23;;;6.40;99.90;;;;;;5082478;28;20443;-45
2022/04/19 03:03:57;;;;;;;17.77;12.90;;;6.30;99.90;;;;;;5082039;28;20424;-43
2022/04/19 03:06:24;;;;;;;17.70;13.32;;;6.20;99.90;;;;;;5062755;28;20052;-44
2022/04/19 03:08:49;;;;;;;17.73;12.82;;;6.20;99.90;;;;;;5092892;27;20066;-44
2022/04/19 03:11:15;;;;;;;18.58;12.95;;;6.30;99.90;;;;;;5092789;27;20052;-44
2022/04/19 03:13:42;;;;;;;16.95;12.25;;;6.30;99.90;;;;;;5082933;28;20040;-42
2022/04/19 03:16:10;;;;;;;14.60;11.30;;;6.30;99.90;;;;;;5082625;28;20147;-43
2022/04/19 03:18:36;;;;;;;15.23;11.45;;;6.30;99.90;;;;;;5100594;28;20058;-43
2022/04/19 03:21:02;;;;;;;17.85;11.57;;;6.30;99.90;;;;;;5099853;28;20039;-44
2022/04/19 03:28:56;;;;;;;16.17;11.00;;;6.40;99.90;;;;;;5079960;28;20498;-43
2022/04/19 03:31:22;;;;;;;11.68;10.48;;;6.40;99.90;;;;;;5081562;28;20047;-43
2022/04/19 03:33:52;;;;;;;14.98;11.30;;;6.40;99.90;;;;;;5081392;28;20149;-44
2022/04/19 03:36:19;;;;;;;16.55;12.30;;;6.40;99.90;;;;;;5076580;28;20110;-43
2022/04/19 03:38:46;;;;;;;13.68;10.82;;;6.40;99.90;;;;;;5100558;28;20100;-44
2022/04/19 03:41:13;;;;;;;15.95;11.63;;;6.40;99.90;;;;;;5101157;28;20551;-42
2022/04/19 03:43:38;;;;;;;14.80;11.80;;;6.30;99.90;;;;;;5082706;28;20055;-43
2022/04/19 03:46:05;;;;;;;17.88;12.00;;;6.40;99.90;;;;;;5100726;28;20058;-45
2022/04/19 03:48:32;;;;;;;15.60;10.98;;;6.40;99.90;;;;;;5068125;28;20052;-44
2022/04/19 03:50:58;;;;;;;13.95;11.15;;;6.40;99.90;;;;;;5080620;28;20075;-44
2022/04/19 03:53:24;;;;;;;14.75;11.23;;;6.50;99.90;;;;;;5082383;28;20127;-43
2022/04/19 03:55:49;;;;;;;15.05;11.43;;;6.40;99.90;;;;;;5083385;28;20127;-43
2022/04/19 03:58:15;;;;;;;13.48;11.52;;;6.40;99.90;;;;;;5103333;28;20078;-44
2022/04/19 04:00:41;;;;;;;14.30;11.15;;;6.40;99.90;;;;;;5100445;28;20823;-44
2022/04/19 04:03:07;;;;;;;11.95;10.18;;;6.40;99.90;;;;;;5098811;28;20042;-45
2022/04/19 04:05:33;;;;;;;14.15;11.55;;;6.40;99.90;;;;;;5097662;28;20118;-45
2022/04/19 04:07:59;;;;;;;13.98;11.10;;;6.40;99.90;;;;;;5097574;28;20530;-44
2022/04/19 04:10:25;;;;;;;12.57;9.90;;;6.40;99.90;;;;;;5104211;27;20129;-43
2022/04/19 04:12:50;;;;;;;11.35;9.85;;;6.40;99.90;;;;;;5080770;28;20437;-44
2022/04/19 04:15:16;;;;;;;12.73;11.38;;;6.50;99.90;;;;;;5093453;28;20040;-44
2022/04/19 04:17:42;;;;;;;12.73;11.43;;;6.40;99.90;;;;;;5089194;28;20516;-42
2022/04/19 04:20:09;;;;;;;12.60;9.38;;;6.40;99.90;;;;;;5079431;28;20066;-42
2022/04/19 04:22:35;;;;;;;13.85;10.13;;;6.40;99.90;;;;;;5092659;28;20047;-44
2022/04/19 04:25:02;;;;;;;13.48;10.90;;;6.30;99.90;;;;;;5079930;28;20454;-43
2022/04/19 04:27:27;;;;;;;13.10;10.50;;;6.30;99.90;;;;;;5082764;28;20043;-43
2022/04/19 04:29:53;;;;;;;12.10;9.85;;;6.30;99.90;;;;;;5089940;28;20044;-44
2022/04/19 04:32:19;;;;;;;14.20;10.25;;;6.30;99.90;;;;;;5082459;28;20554;-43
2022/04/19 04:34:45;;;;;;;12.50;10.25;;;6.30;99.90;;;;;;5085597;28;20081;-45
2022/04/19 04:37:10;;;;;;;11.45;9.18;;;6.30;99.90;;;;;;5080125;28;20054;-43
2022/04/19 04:39:36;;;;;;;12.65;10.25;;;6.40;99.90;;;;;;5088613;28;20572;-44
2022/04/19 04:42:03;;;;;;;16.98;11.85;;;6.40;99.90;;;;;;5100071;28;20051;-43
2022/04/19 04:44:28;;;;;;;20.88;12.23;;;6.40;99.90;;;;;;5081364;28;20051;-44
2022/04/19 04:49:41;;;;;;;14.90;11.68;;;6.40;99.90;;;;;;5094594;28;20127;-43
2022/04/19 04:52:08;;;;;;;15.80;11.35;;;6.40;99.90;;;;;;5100089;28;20477;-45
2022/04/19 04:54:35;;;;;;;15.07;11.88;;;6.40;99.90;;;;;;5099840;28;20236;-44
2022/04/19 04:57:02;;;;;;;13.80;10.48;;;6.40;99.90;;;;;;5097232;28;20452;-43
2022/04/19 04:59:29;;;;;;;13.38;10.93;;;6.40;99.90;;;;;;5079562;28;20596;-43
2022/04/19 05:01:55;;;;;;;14.18;11.48;;;6.40;99.90;;;;;;5079252;28;20108;-43
2022/04/19 05:04:21;;;;;;;17.58;11.90;;;6.50;99.90;;;;;;5100247;28;20130;-43
2022/04/19 05:06:47;;;;;;;14.82;11.80;;;6.60;99.90;;;;;;5101015;28;20851;-44
2022/04/19 05:09:12;;;;;;;16.48;12.15;;;6.60;99.90;;;;;;5082376;28;20470;-43
2022/04/19 05:11:39;;;;;;;16.52;11.50;;;6.70;99.90;;;;;;5083678;28;20052;-45
2022/04/19 05:14:08;;;;;;;13.95;11.90;;;6.80;99.90;;;;;;5093119;28;20052;-44
2022/04/19 05:16:35;;;;;;;13.50;11.20;;;6.90;99.90;;;;;;5097979;28;20048;-45
2022/04/19 05:19:02;;;;;;;15.35;10.70;;;6.90;99.90;;;;;;5090402;28;20048;-44
2022/04/19 05:21:33;;;;;;;13.45;11.40;;;7.40;99.90;;;;;;5080759;28;20159;-43
2022/04/19 05:23:59;;;;;;;14.60;11.98;;;8.70;99.90;;;;;;5068613;28;20056;-44
2022/04/19 05:26:28;;;;;;;14.15;12.63;;;10.40;99.90;;;;;;5092323;28;20048;-46
2022/04/19 05:28:54;;;;;;;17.25;11.82;;;11.90;99.90;;;;;;5083786;28;20706;-45
2022/04/19 05:31:21;;;;;;;13.23;11.82;;;13.20;99.90;;;;;;5068284;28;20056;-43
2022/04/19 05:33:47;;;;;;;17.02;11.45;;;14.50;99.90;;;;;;5087704;28;20048;-43
2022/04/19 05:36:13;;;;;;;12.85;11.48;;;15.60;98.50;;;;;;5090369;28;20075;-43
2022/04/19 05:38:38;;;;;;;14.02;12.40;;;16.60;96.30;;;;;;5086441;28;20054;-44
2022/04/19 05:41:04;;;;;;;12.70;11.48;;;17.40;93.80;;;;;;5064368;28;20134;-43
2022/04/19 05:43:30;;;;;;;12.05;10.75;;;18.50;91.80;;;;;;5088191;28;20498;-44
2022/04/19 05:45:59;;;;;;;12.55;11.38;;;19.20;89.70;;;;;;5103241;28;20048;-44
2022/04/19 05:48:25;;;;;;;12.70;11.38;;;20.00;86.40;;;;;;5102089;28;20071;-45
2022/04/19 05:50:51;;;;;;;12.48;11.02;;;21.00;84.10;;;;;;5085804;28;20052;-45
2022/04/19 05:53:19;;;;;;;13.32;11.88;;;21.60;80.80;;;;;;5092072;28;20048;-44
2022/04/19 05:55:44;;;;;;;13.32;11.32;;;22.40;78.00;;;;;;5092068;28;20043;-45
2022/04/19 05:58:10;;;;;;;15.57;11.85;;;22.80;74.80;;;;;;5090523;28;20039;-44
2022/04/19 06:00:36;;;;;;;14.35;11.35;;;23.00;72.70;;;;;;5085490;28;20105;-45
2022/04/19 06:05:46;;;;;;;12.48;10.82;;;23.90;70.70;;;;;;5083300;28;20052;-47
2022/04/19 06:08:15;;;;;;;13.45;11.07;;;24.40;69.10;;;;;;5073409;27;20039;-47
2022/04/19 06:10:41;;;;;;;13.23;11.80;;;24.80;66.80;;;;;;5104684;27;20402;-46
2022/04/19 06:13:07;;;;;;;14.45;11.57;;;24.80;66.50;;;;;;5103845;28;20048;-44
2022/04/19 06:15:34;;;;;;;14.20;12.40;;;25.40;64.90;;;;;;5102720;28;20054;-46
2022/04/19 06:18:00;;;;;;;13.80;11.80;;;25.30;64.70;;;;;;5103421;28;20128;-44
2022/04/19 06:20:26;;;;;;;13.00;11.70;;;25.20;63.70;;;;;;5103584;28;20372;-46
2022/04/19 06:22:52;;;;;;;12.90;11.60;;;25.70;64.00;;;;;;5090043;28;20507;-45
2022/04/19 06:25:19;;;;;;;13.95;12.05;;;26.00;63.20;;;;;;5066128;28;20351;-44
2022/04/19 06:27:45;;;;;;;13.10;11.75;;;26.50;62.30;;;;;;5085901;28;20129;-45
2022/04/19 06:30:11;;;;;;;12.38;11.20;;;26.70;62.20;;;;;;5093398;28;20043;-48
2022/04/19 06:32:36;;;;;;;15.05;11.55;;;26.90;61.60;;;;;;5088139;28;20060;-47
2022/04/19 06:35:03;;;;;;;13.30;12.00;;;26.70;60.20;;;;;;5082986;28;20464;-45
2022/04/19 06:37:30;;;;;;;16.27;12.32;;;26.30;60.70;;;;;;5082987;28;20565;-45
2022/04/19 06:40:06;;;;;;;13.05;11.75;;;26.00;59.50;;;;;;5082907;28;20110;-45
2022/04/19 06:42:32;;;;;;;13.18;11.82;;;25.70;59.50;;;;;;5082852;28;20491;-46
2022/04/19 06:44:58;;;;;;;14.10;12.57;;;25.20;60.40;;;;;;5102706;28;20122;-50
2022/04/19 06:47:27;;;;;;;13.65;12.32;;;24.90;59.30;;;;;;5102056;28;20036;-46
2022/04/19 06:49:58;;;;;;;13.15;11.82;;;24.60;59.10;;;;;;5102830;28;20096;-47
2022/04/19 06:52:24;;;;;;;13.05;11.20;;;25.00;60.20;;;;;;5102938;28;20069;-45
2022/04/19 06:54:50;;;;;;;12.25;11.07;;;24.70;60.40;;;;;;5088432;28;20044;-46
2022/04/19 06:57:16;;;;;;;13.50;10.98;;;24.20;61.00;;;;;;5065259;28;20578;-45
2022/04/19 06:59:42;;;;;;;14.13;11.70;;;24.80;61.40;;;;;;5082109;28;20051;-45
2022/04/19 07:02:07;;;;;;;13.45;12.15;;;24.60;61.00;;;;;;5101422;28;20501;-45
2022/04/19 07:04:33;;;;;;;14.25;12.80;;;24.50;61.00;;;;;;5101705;28;20048;-45
2022/04/19 07:07:20;;;;;;;13.60;12.05;;;23.90;61.60;;;;;;5075562;28;20047;-48
2022/04/19 07:09:49;;;;;;;13.02;11.80;;;22.70;62.30;;;;;;5107100;27;20630;-46
2022/04/19 07:12:15;;;;;;;12.68;11.38;;;22.00;63.10;;;;;;5065097;28;20081;-45
2022/04/19 07:14:42;;;;;;;11.98;10.85;;;21.40;64.30;;;;;;5068490;28;20066;-44
2022/04/19 07:17:09;;;;;;;13.18;11.80;;;20.50;65.00;;;;;;5080923;28;20131;-45
2022/04/19 07:27:48;;;;;;;13.05;11.40;;;18.20;69.70;;;;;;5086013;28;20514;-46
2022/04/19 07:30:16;;;;;;;13.52;11.18;;;18.00;69.70;;;;;;5092347;28;20048;-45
2022/04/19 07:32:42;;;;;;;12.85;11.05;;;17.40;71.00;;;;;;5082329;28;20063;-44
2022/04/19 07:35:08;;;;;;;12.25;10.88;;;17.30;72.20;;;;;;5063382;28;20087;-48
2022/04/19 07:37:34;;;;;;;12.23;10.93;;;17.40;73.10;;;;;;5096672;28;20131;-46
2022/04/19 07:40:00;;;;;;;11.75;10.43;;;17.40;73.70;;;;;;5103026;28;20389;-47
2022/04/19 07:42:26;;;;;;;14.00;11.50;;;17.40;74.50;;;;;;5088944;28;20487;-48
2022/04/19 07:44:51;;;;;;;12.30;11.05;;;17.40;73.60;;;;;;5082481;28;20541;-45
2022/04/19 07:47:18;;;;;;;12.55;11.05;;;17.40;73.80;;;;;;5081919;28;20101;-46
2022/04/19 07:49:44;;;;;;;14.13;10.95;;;17.20;73.10;;;;;;5080899;28;20071;-46
2022/04/19 07:52:10;;;;;;;13.68;11.93;;;17.00;73.90;;;;;;5081569;28;20048;-47
2022/04/19 07:54:36;;;;;;;13.27;11.65;;;16.80;74.10;;;;;;5081834;28;20415;-48
2022/04/19 07:57:02;;;;;;;14.38;12.98;;;16.80;76.70;;;;;;5094799;28;20252;-46
2022/04/19 07:59:28;;;;;;;13.48;12.07;;;16.90;77.20;;;;;;5100180;28;20055;-45
2022/04/19 08:01:53;;;;;;;13.13;11.88;;;16.80;78.00;;;;;;5082462;28;20044;-46
2022/04/19 08:04:20;;;;;;;14.13;12.63;;;16.70;77.30;;;;;;5101719;28;20047;-44
2022/04/19 08:06:46;;;;;;;15.15;13.55;;;16.50;78.70;;;;;;5084715;28;20051;-44
2022/04/19 08:09:11;;;;;;;14.10;11.82;;;16.50;79.70;;;;;;5096367;28;20043;-46
2022/04/19 08:11:37;;;;;;;14.00;12.45;;;16.60;79.70;;;;;;5101081;28;20370;-44
2022/04/19 08:14:03;;;;;;;14.27;11.48;;;16.50;79.10;;;;;;5101457;28;20141;-44
2022/04/19 08:16:28;;;;;;;14.45;11.75;;;16.50;79.00;;;;;;5100334;28;20039;-46
2022/04/19 08:18:54;;;;;;;14.38;11.85;;;16.30;79.00;;;;;;5080134;28;20044;-44
2022/04/19 08:21:20;;;;;;;13.27;11.82;;;16.10;79.00;;;;;;5083149;28;20060;-45
2022/04/19 08:23:46;;;;;;;12.68;11.05;;;16.10;80.30;;;;;;5079871;28;20052;-44
2022/04/19 08:26:12;;;;;;;13.55;11.00;;;16.10;80.50;;;;;;5082565;28;20050;-46
2022/04/19 08:28:37;;;;;;;11.38;10.18;;;16.00;79.60;;;;;;5080180;28;20447;-44
2022/04/19 08:31:03;;;;;;;13.05;9.75;;;16.00;80.00;;;;;;5093208;28;20043;-47
2022/04/19 08:33:29;;;;;;;13.38;10.07;;;15.90;79.30;;;;;;5090715;28;20075;-47
2022/04/19 08:35:54;;;;;;;11.40;9.40;;;15.80;79.90;;;;;;5084575;28;20486;-46
2022/04/19 08:38:20;;;;;;;12.82;9.13;;;15.80;79.50;;;;;;5060858;28;20178;-45
2022/04/19 08:40:48;;;;;;;12.13;8.95;;;16.00;79.80;;;;;;5069912;28;20112;-45
2022/04/19 08:43:13;;;;;;;11.25;8.50;;;16.10;80.80;;;;;;5100790;28;20385;-45
2022/04/19 08:45:39;;;;;;;10.68;8.70;;;16.30;81.30;;;;;;5101749;28;20055;-47
2022/04/19 08:48:09;;;;;;;11.13;7.97;;;16.50;80.20;;;;;;5100632;28;20051;-46
2022/04/19 08:50:37;;;;;;;12.02;8.32;;;16.50;79.60;;;;;;5100243;28;20453;-46
2022/04/19 08:58:32;;;;;;;8.70;6.85;;;16.80;79.20;;;;;;5081280;28;20063;-47
2022/04/19 09:00:58;;;;;;;8.85;6.00;;;16.70;78.60;;;;;;5066140;28;20056;-45
2022/04/19 09:03:25;;;;;;;11.32;6.57;;;16.60;78.20;;;;;;5081894;28;20122;-46
2022/04/19 09:05:52;;;;;;;7.72;6.05;;;16.60;78.90;;;;;;5082038;28;20056;-47
2022/04/19 09:08:19;;;;;;;10.70;6.40;;;16.80;80.20;;;;;;5083207;28;20039;-45
2022/04/19 09:10:45;;;;;;;9.88;6.72;;;16.90;79.00;;;;;;5110596;28;20490;-45
2022/04/19 09:13:26;;;;;;;7.18;6.38;;;17.00;78.80;;;;;;5096661;28;20697;-45
2022/04/19 09:15:54;;;;;;;6.95;5.35;;;17.10;78.40;;;;;;5050246;28;20201;-45
2022/04/19 09:18:32;;;;;;;7.97;5.70;;;17.10;77.90;;;;;;5115262;27;20584;-47
2022/04/19 09:20:59;;;;;;;8.38;6.03;;;17.00;76.80;;;;;;5105003;28;20047;-45
2022/04/19 09:23:26;;;;;;;7.93;5.07;;;16.90;78.30;;;;;;5095032;27;20051;-45
2022/04/19 09:26:10;;;;;;;7.50;5.90;;;16.90;77.70;;;;;;5125075;27;20047;-47
2022/04/19 09:28:36;;;;;;;6.65;5.82;;;16.90;79.30;;;;;;5124225;27;20416;-47
2022/04/19 09:31:11;;;;;;;6.88;5.15;;;17.00;79.70;;;;;;5124854;27;20120;-46
2022/04/19 09:33:37;;;;;;;7.80;5.93;;;17.10;78.60;;;;;;5124296;27;20562;-45
2022/04/19 09:36:04;;;;;;;7.18;5.78;;;17.20;78.10;;;;;;5124931;27;20047;-44
2022/04/19 09:38:47;;;;;;;6.82;5.55;;;17.30;76.90;;;;;;5123896;27;20115;-45
2022/04/19 09:41:29;;;;;;;;;;;17.30;76.00;;;;;;5106730;27;20092;-45
2022/04/19 09:44:09;;;;;;;8.18;6.10;;;17.30;75.70;;;;;;5103830;27;20396;-46
2022/04/19 09:46:36;;;;;;;9.00;5.93;;;17.50;78.10;;;;;;5104374;28;20123;-45
2022/04/19 09:49:03;;;;;;;11.63;6.75;;;17.40;76.60;;;;;;5103649;28;20047;-45
2022/04/19 09:51:36;;;;;;;8.88;5.90;;;17.20;75.90;;;;;;5103532;28;20066;-45
2022/04/19 09:54:02;;;;;;;8.23;6.25;;;17.10;76.10;;;;;;5103463;28;20186;-47
2022/04/19 09:56:38;;;;;;;9.32;6.05;;;17.00;76.20;;;;;;5107771;27;20135;-44
2022/04/19 09:59:04;;;;;;;10.50;6.00;;;17.00;76.70;;;;;;5123146;27;20043;-50
2022/04/19 10:09:32;;;;;;;4.40;3.42;;;17.10;75.10;;;;;;5136257;27;20454;-46
2022/04/19 10:11:58;;;;;;;4.05;3.20;;;17.00;74.50;;;;;;5085469;28;20043;-45
2022/04/19 10:14:24;;;;;;;4.55;3.70;;;17.00;73.70;;;;;;5103322;28;20048;-48
2022/04/19 10:16:50;;;;;;;5.68;3.08;;;17.00;75.80;;;;;;5113097;27;20413;-47
2022/04/19 10:19:17;;;;;;;2.95;2.05;;;17.10;75.30;;;;;;5106664;27;20178;-45
2022/04/19 10:21:45;;;;;;;4.63;2.03;;;17.20;74.80;;;;;;5127040;27;20043;-45
2022/04/19 10:24:16;;;;;;;5.82;2.75;;;17.20;72.00;;;;;;5126608;27;20093;-46
2022/04/19 10:26:46;;;;;;;3.17;2.28;;;17.20;73.00;;;;;;5106147;27;20588;-48
2022/04/19 10:29:21;;;;;;;3.78;2.97;;;17.30;73.20;;;;;;5102808;28;20107;-48
2022/04/19 10:31:59;;;;;;;5.40;2.88;;;17.30;73.10;;;;;;5085039;28;20116;-48
2022/04/19 10:34:35;;;;;;;3.80;2.75;;;17.20;71.20;;;;;;5084947;28;20079;-45
2022/04/19 10:37:16;;;;;;;5.82;2.65;;;17.10;70.20;;;;;;5104756;27;20047;-45
2022/04/19 10:39:46;;;;;;;3.78;2.80;;;17.10;70.70;;;;;;5096882;28;20051;-44
2022/04/19 10:42:39;;;;;;;5.63;2.85;;;17.00;71.20;;;;;;5084663;28;20078;-48
2022/04/19 10:45:14;;;;;;;4.47;2.50;;;17.10;69.90;;;;;;5103766;28;20051;-45
2022/04/19 10:47:52;;;;;;;3.03;2.25;;;17.10;68.70;;;;;;5097817;27;20109;-44
2022/04/19 10:50:33;;;;;;;3.30;2.33;;;17.00;66.90;;;;;;5103750;28;20051;-44
2022/04/19 10:53:10;;;;;;;3.83;2.10;;;17.00;68.80;;;;;;5084930;28;20047;-47
2022/04/19 10:55:37;;;;;;;4.82;1.85;;;17.10;70.30;;;;;;5085902;28;20059;-46
2022/04/19 10:58:16;;;;;;;1.90;1.30;;;17.10;68.50;;;;;;5095763;27;20047;-45
2022/04/19 11:00:41;;;;;;;4.57;1.90;;;17.10;67.00;;;;;;5084774;28;20071;-46
2022/04/19 11:03:41;;;;;;;5.20;2.40;;;17.00;66.60;;;;;;5084098;28;20145;-49
2022/04/19 11:06:30;;;;;;;3.17;2.00;;;16.90;67.80;;;;;;5010986;28;20071;-47
2022/04/19 11:09:26;;;;;;;2.58;1.92;;;16.80;68.60;;;;;;5037596;28;20057;-44
2022/04/19 11:12:07;;;;;;;2.95;1.52;;;16.90;69.70;;;;;;5018745;28;20069;-45
2022/04/19 11:14:40;;;;;;;2.08;1.63;;;17.00;69.60;;;;;;5002262;28;20057;-45
2022/04/19 11:17:23;;;;;;;2.72;1.83;;;17.20;70.00;;;;;;5033720;28;20123;-45
2022/04/19 11:19:57;;;;;;;3.05;2.28;;;17.20;67.40;;;;;;5034470;28;20056;-45
2022/04/19 11:22:41;;;;;;;3.80;2.28;;;17.20;68.70;;;;;;5047563;28;20052;-45
2022/04/19 11:25:07;;;;;;;2.92;2.20;;;17.10;68.00;;;;;;5047479;28;20096;-46
2022/04/19 11:27:53;;;;;;;4.07;2.80;;;17.20;70.40;;;;;;5040501;28;20061;-47
2022/04/19 11:30:23;;;;;;;4.50;2.58;;;17.20;70.10;;;;;;5028730;28;20132;-47
2022/04/19 11:32:56;;;;;;;6.00;2.67;;;17.10;69.20;;;;;;5059190;28;20052;-45
2022/04/19 11:35:23;;;;;;;3.75;2.28;;;17.00;68.50;;;;;;5041750;28;20064;-45
2022/04/19 11:37:49;;;;;;;4.07;1.88;;;17.00;67.90;;;;;;5028631;28;20234;-45
2022/04/19 11:48:44;;;;;;;6.57;2.25;;;17.00;70.60;;;;;;5130304;27;20054;-45
2022/04/19 11:51:12;;;;;;;4.50;2.33;;;17.00;69.10;;;;;;5103836;27;20110;-46
2022/04/19 11:53:38;;;;;;;5.03;2.47;;;17.00;67.30;;;;;;5106176;27;20076;-46
2022/04/19 11:56:06;;;;;;;8.40;2.97;;;17.20;69.00;;;;;;5123020;27;20043;-45
2022/04/19 11:58:33;;;;;;;5.60;2.70;;;17.20;69.80;;;;;;5103127;27;20235;-47
2022/04/19 12:01:03;;;;;;;3.78;3.00;;;17.20;69.70;;;;;;5122699;27;20085;-46
2022/04/19 12:03:39;;;;;;;7.65;2.97;;;17.20;71.20;;;;;;5106001;27;20054;-46
2022/04/19 12:06:12;;;;;;;14.70;3.00;;;17.20;73.20;;;;;;5122281;27;20039;-49
2022/04/19 12:08:45;;;;;;;4.13;2.42;;;17.20;70.10;;;;;;5111572;27;20564;-48
2022/04/19 12:11:16;;;;;;;3.72;2.65;;;17.20;70.90;;;;;;5118236;27;20046;-47
2022/04/19 12:13:52;;;;;;;3.13;2.50;;;17.20;70.90;;;;;;5129891;27;20047;-46
2022/04/19 12:16:28;;;;;;;6.40;2.70;;;17.20;70.20;;;;;;5128911;27;20076;-46
2022/04/19 12:18:54;;;;;;;3.85;2.67;;;17.20;71.30;;;;;;5141785;27;20050;-45
2022/04/19 12:21:34;;;;;;;2.60;2.30;;;17.20;72.70;;;;;;5142387;27;20082;-44
2022/04/19 12:24:00;;;;;;;4.53;2.75;;;17.30;72.90;;;;;;5133528;27;20042;-46
2022/04/19 12:26:26;;;;;;;4.82;2.80;;;17.30;73.50;;;;;;5141891;27;20084;-46
2022/04/19 12:28:52;;;;;;;6.18;3.15;;;17.40;74.10;;;;;;5141386;27;20511;-47
2022/04/19 12:31:39;;;;;;;4.60;2.80;;;17.40;73.10;;;;;;5141811;27;20056;-45
2022/04/19 12:34:06;;;;;;;5.82;3.22;;;17.40;74.40;;;;;;5141520;27;20343;-45
2022/04/19 12:36:45;;;;;;;4.13;3.15;;;17.40;74.00;;;;;;5142131;27;20050;-46
2022/04/19 12:39:12;;;;;;;3.70;3.08;;;17.50;73.40;;;;;;5121913;27;20558;-47
2022/04/19 12:41:45;;;;;;;4.32;3.50;;;17.50;72.80;;;;;;5113852;27;20055;-47
2022/04/19 12:44:16;;;;;;;5.20;3.30;;;17.70;75.10;;;;;;5122318;27;20054;-47
2022/04/19 12:46:45;;;;;;;4.18;2.95;;;17.60;73.30;;;;;;5121277;27;20099;-46
2022/04/19 12:49:24;;;;;;;3.78;3.17;;;17.60;71.70;;;;;;5102102;27;20520;-45
2022/04/19 12:52:00;;;;;;;4.15;2.80;;;17.50;70.60;;;;;;5121756;27;20043;-46
2022/04/19 12:54:33;;;;;;;3.35;2.58;;;17.30;71.30;;;;;;5110744;27;20157;-45
2022/04/19 12:57:01;;;;;;;;;;;17.30;70.70;;;;;;5137467;27;20143;-46
2022/04/19 12:59:35;;;;;;;7.13;3.70;;;17.30;70.10;;;;;;5142112;27;20041;-45
2022/04/19 13:02:01;;;;;;;4.70;3.60;;;17.30;72.30;;;;;;5142089;27;20542;-45
2022/04/19 13:04:27;;;;;;;5.30;3.13;;;17.30;73.10;;;;;;5141893;27;20415;-45
2022/04/19 13:12:25;;;;;;;4.43;3.90;;;17.40;72.90;;;;;;5123392;28;20047;-47
2022/04/19 13:14:56;;;;;;;3.70;3.38;;;17.40;72.40;;;;;;5106086;27;20054;-47
2022/04/19 13:17:24;;;;;;;4.80;3.50;;;17.30;71.90;;;;;;5110305;27;20090;-47
2022/04/19 13:19:50;;;;;;;6.05;3.17;;;17.30;73.90;;;;;;5121259;28;20086;-46
2022/04/19 13:22:16;;;;;;;7.28;3.28;;;17.20;74.80;;;;;;5121520;28;20137;-47
2022/04/19 13:24:42;;;;;;;4.65;3.75;;;17.20;72.80;;;;;;5121303;28;20051;-46
2022/04/19 13:27:10;;;;;;;6.65;3.70;;;17.20;72.80;;;;;;5121397;28;20123;-45
2022/04/19 13:29:37;;;;;;;6.75;2.97;;;17.20;73.10;;;;;;5113390;28;20044;-47
2022/04/19 13:32:03;;;;;;;5.40;3.38;;;17.30;74.30;;;;;;5093931;28;20048;-47
2022/04/19 13:34:30;;;;;;;6.90;3.13;;;17.20;71.60;;;;;;5100294;28;20047;-47